This is the latest recevied weather packets stored in our database for station/object OE-11331. If no packets are shown the sender has not sent any weather packets the latest 10 day(s).
| Time | Temp. | Humidity | Pressure | Rain* | Wind** | Luminosity | Snow |
|---|---|---|---|---|---|---|---|
| 1787964934 | 21.11° C | 77% | 1012.4 hPa | 0 mm | - | 0 W/m² | - |
| 1787964107 | 21.11° C | 73% | 1012 hPa | 0 mm | - | 0 W/m² | - |
| 1787963734 | 21.67° C | 71% | 1011.6 hPa | 0 mm | - | 0 W/m² | - |
| 1787963133 | 21.67° C | 70% | 1012 hPa | 0 mm | - | 0 W/m² | - |
| 1787962306 | 21.11° C | 71% | 1012.1 hPa | 0 mm | - | 0 W/m² | - |
| 1787961933 | 21.67° C | 65% | 1011.8 hPa | 0 mm | - | 0 W/m² | - |
| 1787961334 | 21.11° C | 66% | 1012.1 hPa | 0 mm | - | 0 W/m² | - |
| 1787960507 | 20.56° C | 71% | 1012 hPa | 0 mm | - | 0 W/m² | - |
| 1787960134 | 22.22° C | 60% | 1011.8 hPa | 0 mm | - | 0 W/m² | - |
| 1787959533 | 22.78° C | 59% | 1011.7 hPa | 0 mm | - | 0 W/m² | - |
| 1787958934 | 22.22° C | 63% | 1012.2 hPa | 0 mm | - | 0 W/m² | - |
| 1787958334 | 23.33° C | 54% | 1011.7 hPa | 0 mm | - | 0 W/m² | - |
| 1787957734 | 22.22° C | 64% | 1012 hPa | 0 mm | - | 0 W/m² | - |
| 1787956907 | 22.78° C | 62% | 1011.7 hPa | 0 mm | - | 0 W/m² | - |
| 1787956534 | 22.78° C | 64% | 1011.3 hPa | 0 mm | - | 0 W/m² | - |
| 1787955934 | 22.78° C | 64% | 1011.1 hPa | 0 mm | - | 0 W/m² | - |
| 1787955107 | 23.33° C | 61% | 1011.2 hPa | 0 mm | - | 0 W/m² | - |
| 1787954733 | 24.44° C | 57% | 1010.7 hPa | 0 mm | - | 0 W/m² | - |
| 1787954134 | 25.56° C | 51% | 1010.7 hPa | 0 mm | - | 0 W/m² | - |
| 1787953307 | 27.78° C | 36% | 1010.2 hPa | 0 mm | - | 0 W/m² | - |
| 1787952934 | 27.78° C | 39% | 1011.9 hPa | 0 mm | - | 0 W/m² | - |
| 1787952334 | 27.22° C | 41% | 1012.7 hPa | 0 mm | - | 0 W/m² | - |
| 1787951507 | 28.33° C | 39% | 1012.5 hPa | 0 mm | - | 0 W/m² | - |
| 1787951134 | 27.22° C | 48% | 1011.8 hPa | 0 mm | - | 0 W/m² | - |
| 1787950534 | 24.44° C | 66% | 1011.4 hPa | 0 mm | - | 0 W/m² | - |
* Rain latest hour (hover to see other rain measurements)
** Current wind speed in m/s (hover to see current wind gust speed)